sensor_id;sensor_type;location;lat;lon;timestamp;P1;durP1;ratioP1;P2;durP2;ratioP2
3841;SDS011;1936;47.074;15.336;2023-12-04T00:01:44;4.90;;;4.00;;
3841;SDS011;1936;47.074;15.336;2023-12-04T00:03:48;3.72;;;3.30;;
3841;SDS011;1936;47.074;15.336;2023-12-04T00:05:51;5.93;;;4.50;;
3841;SDS011;1936;47.074;15.336;2023-12-04T00:07:56;4.80;;;4.15;;
3841;SDS011;1936;47.074;15.336;2023-12-04T00:09:59;4.80;;;3.90;;
3841;SDS011;1936;47.074;15.336;2023-12-04T00:12:03;4.75;;;3.90;;
3841;SDS011;1936;47.074;15.336;2023-12-04T00:14:07;5.75;;;4.82;;
3841;SDS011;1936;47.074;15.336;2023-12-04T00:16:09;5.43;;;4.32;;
3841;SDS011;1936;47.074;15.336;2023-12-04T00:18:13;4.57;;;4.10;;
3841;SDS011;1936;47.074;15.336;2023-12-04T00:20:17;7.07;;;4.35;;
3841;SDS011;1936;47.074;15.336;2023-12-04T00:22:20;7.78;;;3.85;;
3841;SDS011;1936;47.074;15.336;2023-12-04T00:24:26;5.55;;;4.45;;
3841;SDS011;1936;47.074;15.336;2023-12-04T00:26:30;5.10;;;3.78;;
3841;SDS011;1936;47.074;15.336;2023-12-04T00:28:35;7.47;;;4.70;;
3841;SDS011;1936;47.074;15.336;2023-12-04T00:30:39;7.20;;;4.78;;
3841;SDS011;1936;47.074;15.336;2023-12-04T00:32:42;5.50;;;4.20;;
3841;SDS011;1936;47.074;15.336;2023-12-04T00:34:46;8.38;;;4.38;;
3841;SDS011;1936;47.074;15.336;2023-12-04T00:36:49;9.68;;;4.68;;
3841;SDS011;1936;47.074;15.336;2023-12-04T00:38:53;7.60;;;4.68;;
3841;SDS011;1936;47.074;15.336;2023-12-04T00:40:57;5.90;;;5.22;;
3841;SDS011;1936;47.074;15.336;2023-12-04T00:43:00;6.68;;;4.95;;
3841;SDS011;1936;47.074;15.336;2023-12-04T00:45:04;6.70;;;4.22;;
3841;SDS011;1936;47.074;15.336;2023-12-04T00:47:08;5.90;;;3.92;;
3841;SDS011;1936;47.074;15.336;2023-12-04T00:49:12;5.28;;;4.75;;
3841;SDS011;1936;47.074;15.336;2023-12-04T00:51:15;7.30;;;4.80;;
3841;SDS011;1936;47.074;15.336;2023-12-04T00:53:18;7.03;;;4.30;;
3841;SDS011;1936;47.074;15.336;2023-12-04T00:55:21;5.45;;;4.15;;
3841;SDS011;1936;47.074;15.336;2023-12-04T00:57:27;6.18;;;4.28;;
3841;SDS011;1936;47.074;15.336;2023-12-04T00:59:31;5.28;;;4.05;;
3841;SDS011;1936;47.074;15.336;2023-12-04T01:01:35;6.65;;;4.88;;
3841;SDS011;1936;47.074;15.336;2023-12-04T01:03:38;4.80;;;3.50;;
3841;SDS011;1936;47.074;15.336;2023-12-04T01:05:42;5.13;;;4.63;;
3841;SDS011;1936;47.074;15.336;2023-12-04T01:07:45;6.28;;;4.57;;
3841;SDS011;1936;47.074;15.336;2023-12-04T01:09:49;6.13;;;4.47;;
3841;SDS011;1936;47.074;15.336;2023-12-04T01:11:52;6.15;;;5.28;;
3841;SDS011;1936;47.074;15.336;2023-12-04T01:13:57;3.65;;;3.30;;
3841;SDS011;1936;47.074;15.336;2023-12-04T01:16:01;9.15;;;4.35;;
3841;SDS011;1936;47.074;15.336;2023-12-04T01:18:04;7.05;;;4.13;;
3841;SDS011;1936;47.074;15.336;2023-12-04T01:20:09;5.90;;;4.90;;
3841;SDS011;1936;47.074;15.336;2023-12-04T01:22:13;5.70;;;4.30;;
3841;SDS011;1936;47.074;15.336;2023-12-04T01:24:16;5.72;;;4.47;;
3841;SDS011;1936;47.074;15.336;2023-12-04T01:26:19;4.85;;;3.88;;
3841;SDS011;1936;47.074;15.336;2023-12-04T01:28:22;5.05;;;3.92;;
3841;SDS011;1936;47.074;15.336;2023-12-04T01:30:27;6.88;;;4.75;;
3841;SDS011;1936;47.074;15.336;2023-12-04T01:32:31;6.53;;;4.95;;
3841;SDS011;1936;47.074;15.336;2023-12-04T01:34:34;6.55;;;5.60;;
3841;SDS011;1936;47.074;15.336;2023-12-04T01:36:39;8.05;;;5.03;;
3841;SDS011;1936;47.074;15.336;2023-12-04T01:38:43;5.00;;;4.22;;
3841;SDS011;1936;47.074;15.336;2023-12-04T01:40:46;7.00;;;5.40;;
3841;SDS011;1936;47.074;15.336;2023-12-04T01:42:50;8.23;;;4.78;;
3841;SDS011;1936;47.074;15.336;2023-12-04T01:44:53;6.93;;;4.47;;
3841;SDS011;1936;47.074;15.336;2023-12-04T01:46:58;5.22;;;4.07;;
3841;SDS011;1936;47.074;15.336;2023-12-04T01:49:02;6.60;;;4.72;;
3841;SDS011;1936;47.074;15.336;2023-12-04T01:51:06;6.93;;;5.43;;
3841;SDS011;1936;47.074;15.336;2023-12-04T01:53:11;6.22;;;5.03;;
3841;SDS011;1936;47.074;15.336;2023-12-04T01:55:15;8.35;;;5.22;;
3841;SDS011;1936;47.074;15.336;2023-12-04T01:57:19;6.18;;;4.65;;
3841;SDS011;1936;47.074;15.336;2023-12-04T01:59:22;7.93;;;5.78;;
3841;SDS011;1936;47.074;15.336;2023-12-04T02:01:26;7.93;;;4.75;;
3841;SDS011;1936;47.074;15.336;2023-12-04T02:03:32;6.75;;;4.47;;
3841;SDS011;1936;47.074;15.336;2023-12-04T02:05:36;5.50;;;4.60;;
3841;SDS011;1936;47.074;15.336;2023-12-04T02:07:40;5.75;;;4.80;;
3841;SDS011;1936;47.074;15.336;2023-12-04T02:09:43;7.20;;;5.18;;
3841;SDS011;1936;47.074;15.336;2023-12-04T02:11:46;7.22;;;4.53;;
3841;SDS011;1936;47.074;15.336;2023-12-04T02:13:50;6.20;;;5.25;;
3841;SDS011;1936;47.074;15.336;2023-12-04T02:15:54;7.13;;;4.72;;
3841;SDS011;1936;47.074;15.336;2023-12-04T02:18:00;7.10;;;4.53;;
3841;SDS011;1936;47.074;15.336;2023-12-04T02:20:07;11.43;;;4.72;;
3841;SDS011;1936;47.074;15.336;2023-12-04T02:22:12;5.60;;;4.25;;
3841;SDS011;1936;47.074;15.336;2023-12-04T02:24:16;5.50;;;4.70;;
3841;SDS011;1936;47.074;15.336;2023-12-04T02:26:22;6.78;;;4.60;;
3841;SDS011;1936;47.074;15.336;2023-12-04T02:28:30;9.35;;;4.20;;
3841;SDS011;1936;47.074;15.336;2023-12-04T02:30:36;5.97;;;4.95;;
3841;SDS011;1936;47.074;15.336;2023-12-04T02:32:46;7.15;;;4.93;;
3841;SDS011;1936;47.074;15.336;2023-12-04T02:34:50;6.90;;;4.70;;
3841;SDS011;1936;47.074;15.336;2023-12-04T02:36:57;4.47;;;3.78;;
3841;SDS011;1936;47.074;15.336;2023-12-04T02:39:02;7.85;;;4.78;;
3841;SDS011;1936;47.074;15.336;2023-12-04T02:41:07;7.40;;;5.20;;
3841;SDS011;1936;47.074;15.336;2023-12-04T02:43:11;4.40;;;3.67;;
3841;SDS011;1936;47.074;15.336;2023-12-04T02:45:14;6.60;;;4.93;;
3841;SDS011;1936;47.074;15.336;2023-12-04T02:47:18;5.05;;;4.03;;
3841;SDS011;1936;47.074;15.336;2023-12-04T02:49:21;5.45;;;3.80;;
3841;SDS011;1936;47.074;15.336;2023-12-04T02:51:25;7.13;;;5.45;;
3841;SDS011;1936;47.074;15.336;2023-12-04T02:53:29;5.10;;;4.50;;
3841;SDS011;1936;47.074;15.336;2023-12-04T02:55:33;6.13;;;4.30;;
3841;SDS011;1936;47.074;15.336;2023-12-04T02:57:37;8.43;;;4.60;;
3841;SDS011;1936;47.074;15.336;2023-12-04T02:59:41;4.95;;;4.03;;
3841;SDS011;1936;47.074;15.336;2023-12-04T03:01:45;6.25;;;4.80;;
3841;SDS011;1936;47.074;15.336;2023-12-04T03:03:48;9.00;;;5.60;;
3841;SDS011;1936;47.074;15.336;2023-12-04T03:05:50;5.40;;;4.35;;
3841;SDS011;1936;47.074;15.336;2023-12-04T03:07:54;5.60;;;4.28;;
3841;SDS011;1936;47.074;15.336;2023-12-04T03:09:56;6.88;;;4.55;;
3841;SDS011;1936;47.074;15.336;2023-12-04T03:12:00;6.07;;;5.22;;
3841;SDS011;1936;47.074;15.336;2023-12-04T03:14:06;6.75;;;4.45;;
3841;SDS011;1936;47.074;15.336;2023-12-04T03:16:14;5.20;;;4.57;;
3841;SDS011;1936;47.074;15.336;2023-12-04T03:18:18;6.75;;;4.65;;
3841;SDS011;1936;47.074;15.336;2023-12-04T03:20:22;6.38;;;4.20;;
3841;SDS011;1936;47.074;15.336;2023-12-04T03:22:25;10.18;;;5.45;;
3841;SDS011;1936;47.074;15.336;2023-12-04T03:24:28;7.60;;;4.90;;
3841;SDS011;1936;47.074;15.336;2023-12-04T03:26:32;7.32;;;5.40;;
3841;SDS011;1936;47.074;15.336;2023-12-04T03:28:35;8.73;;;5.45;;
3841;SDS011;1936;47.074;15.336;2023-12-04T03:30:42;7.93;;;3.88;;
3841;SDS011;1936;47.074;15.336;2023-12-04T03:32:47;7.00;;;5.35;;
3841;SDS011;1936;47.074;15.336;2023-12-04T03:34:49;7.40;;;5.50;;
3841;SDS011;1936;47.074;15.336;2023-12-04T03:36:52;8.25;;;5.00;;
3841;SDS011;1936;47.074;15.336;2023-12-04T03:38:56;5.00;;;4.50;;
3841;SDS011;1936;47.074;15.336;2023-12-04T03:40:59;5.60;;;5.10;;
3841;SDS011;1936;47.074;15.336;2023-12-04T03:43:03;6.10;;;4.43;;
3841;SDS011;1936;47.074;15.336;2023-12-04T03:45:06;9.93;;;5.20;;
3841;SDS011;1936;47.074;15.336;2023-12-04T03:47:12;6.40;;;4.70;;
3841;SDS011;1936;47.074;15.336;2023-12-04T03:49:15;5.18;;;4.65;;
3841;SDS011;1936;47.074;15.336;2023-12-04T03:51:19;6.38;;;4.50;;
3841;SDS011;1936;47.074;15.336;2023-12-04T03:53:22;8.20;;;5.35;;
3841;SDS011;1936;47.074;15.336;2023-12-04T03:55:25;4.53;;;4.00;;
3841;SDS011;1936;47.074;15.336;2023-12-04T03:57:28;6.45;;;5.32;;
3841;SDS011;1936;47.074;15.336;2023-12-04T03:59:32;9.07;;;5.70;;
3841;SDS011;1936;47.074;15.336;2023-12-04T04:01:35;6.15;;;4.47;;
3841;SDS011;1936;47.074;15.336;2023-12-04T04:03:40;5.88;;;5.28;;
3841;SDS011;1936;47.074;15.336;2023-12-04T04:05:46;7.93;;;5.22;;
3841;SDS011;1936;47.074;15.336;2023-12-04T04:07:50;7.22;;;5.43;;
3841;SDS011;1936;47.074;15.336;2023-12-04T04:09:53;8.18;;;4.88;;
3841;SDS011;1936;47.074;15.336;2023-12-04T04:11:56;8.85;;;5.32;;
3841;SDS011;1936;47.074;15.336;2023-12-04T04:14:00;6.15;;;4.45;;
3841;SDS011;1936;47.074;15.336;2023-12-04T04:16:04;6.95;;;5.57;;
3841;SDS011;1936;47.074;15.336;2023-12-04T04:18:08;13.30;;;5.25;;
3841;SDS011;1936;47.074;15.336;2023-12-04T04:20:13;8.18;;;5.90;;
3841;SDS011;1936;47.074;15.336;2023-12-04T04:22:16;6.13;;;4.93;;
3841;SDS011;1936;47.074;15.336;2023-12-04T04:24:19;5.15;;;4.10;;
3841;SDS011;1936;47.074;15.336;2023-12-04T04:26:23;7.75;;;4.45;;
3841;SDS011;1936;47.074;15.336;2023-12-04T04:28:25;6.63;;;4.50;;
3841;SDS011;1936;47.074;15.336;2023-12-04T04:30:28;7.25;;;4.85;;
3841;SDS011;1936;47.074;15.336;2023-12-04T04:32:32;5.95;;;3.90;;
3841;SDS011;1936;47.074;15.336;2023-12-04T04:34:35;6.65;;;4.28;;
3841;SDS011;1936;47.074;15.336;2023-12-04T04:36:39;6.00;;;4.18;;
3841;SDS011;1936;47.074;15.336;2023-12-04T04:38:43;6.35;;;4.47;;
3841;SDS011;1936;47.074;15.336;2023-12-04T04:40:47;5.90;;;4.28;;
3841;SDS011;1936;47.074;15.336;2023-12-04T04:42:50;5.95;;;4.80;;
3841;SDS011;1936;47.074;15.336;2023-12-04T04:44:54;6.72;;;5.18;;
3841;SDS011;1936;47.074;15.336;2023-12-04T04:46:56;6.18;;;4.13;;
3841;SDS011;1936;47.074;15.336;2023-12-04T04:48:59;6.72;;;4.10;;
3841;SDS011;1936;47.074;15.336;2023-12-04T04:51:04;5.40;;;3.28;;
3841;SDS011;1936;47.074;15.336;2023-12-04T04:53:09;5.70;;;4.45;;
3841;SDS011;1936;47.074;15.336;2023-12-04T04:55:12;5.07;;;4.28;;
3841;SDS011;1936;47.074;15.336;2023-12-04T04:57:36;6.72;;;4.53;;
3841;SDS011;1936;47.074;15.336;2023-12-04T04:59:39;8.32;;;6.03;;
3841;SDS011;1936;47.074;15.336;2023-12-04T05:01:43;5.70;;;4.32;;
3841;SDS011;1936;47.074;15.336;2023-12-04T05:03:46;10.70;;;4.90;;
3841;SDS011;1936;47.074;15.336;2023-12-04T05:05:50;7.32;;;5.10;;
3841;SDS011;1936;47.074;15.336;2023-12-04T05:07:53;4.95;;;4.07;;
3841;SDS011;1936;47.074;15.336;2023-12-04T05:09:58;7.07;;;4.63;;
3841;SDS011;1936;47.074;15.336;2023-12-04T05:12:03;5.43;;;4.35;;
3841;SDS011;1936;47.074;15.336;2023-12-04T05:14:08;7.10;;;4.32;;
3841;SDS011;1936;47.074;15.336;2023-12-04T05:16:11;6.55;;;4.78;;
3841;SDS011;1936;47.074;15.336;2023-12-04T05:18:15;4.93;;;4.25;;
3841;SDS011;1936;47.074;15.336;2023-12-04T05:20:18;4.90;;;4.32;;
3841;SDS011;1936;47.074;15.336;2023-12-04T05:22:22;11.35;;;4.82;;
3841;SDS011;1936;47.074;15.336;2023-12-04T05:24:25;4.82;;;3.90;;
3841;SDS011;1936;47.074;15.336;2023-12-04T05:26:30;5.03;;;4.40;;
3841;SDS011;1936;47.074;15.336;2023-12-04T05:28:34;7.20;;;4.90;;
3841;SDS011;1936;47.074;15.336;2023-12-04T05:30:37;9.77;;;5.82;;
3841;SDS011;1936;47.074;15.336;2023-12-04T05:32:41;8.25;;;6.32;;
3841;SDS011;1936;47.074;15.336;2023-12-04T05:34:45;8.10;;;4.75;;
3841;SDS011;1936;47.074;15.336;2023-12-04T05:36:48;8.63;;;5.15;;
3841;SDS011;1936;47.074;15.336;2023-12-04T05:38:52;6.32;;;5.13;;
3841;SDS011;1936;47.074;15.336;2023-12-04T05:40:58;6.82;;;5.13;;
3841;SDS011;1936;47.074;15.336;2023-12-04T05:43:04;8.65;;;5.13;;
3841;SDS011;1936;47.074;15.336;2023-12-04T05:45:06;6.32;;;4.32;;
3841;SDS011;1936;47.074;15.336;2023-12-04T05:47:10;8.80;;;5.03;;
3841;SDS011;1936;47.074;15.336;2023-12-04T05:49:13;6.90;;;5.55;;
3841;SDS011;1936;47.074;15.336;2023-12-04T05:51:17;6.22;;;4.45;;
3841;SDS011;1936;47.074;15.336;2023-12-04T05:53:20;7.57;;;4.32;;
3841;SDS011;1936;47.074;15.336;2023-12-04T05:55:24;9.63;;;5.88;;
3841;SDS011;1936;47.074;15.336;2023-12-04T05:57:27;6.30;;;4.15;;
3841;SDS011;1936;47.074;15.336;2023-12-04T05:59:32;8.05;;;4.82;;
3841;SDS011;1936;47.074;15.336;2023-12-04T06:01:35;7.75;;;5.05;;
3841;SDS011;1936;47.074;15.336;2023-12-04T06:03:39;12.18;;;5.50;;
3841;SDS011;1936;47.074;15.336;2023-12-04T06:05:43;10.45;;;6.13;;
3841;SDS011;1936;47.074;15.336;2023-12-04T06:07:45;5.80;;;4.72;;
3841;SDS011;1936;47.074;15.336;2023-12-04T06:09:48;8.38;;;5.65;;
3841;SDS011;1936;47.074;15.336;2023-12-04T06:11:52;6.55;;;4.93;;
3841;SDS011;1936;47.074;15.336;2023-12-04T06:13:55;11.30;;;5.57;;
3841;SDS011;1936;47.074;15.336;2023-12-04T06:16:01;8.30;;;5.10;;
3841;SDS011;1936;47.074;15.336;2023-12-04T06:18:04;9.02;;;4.10;;
3841;SDS011;1936;47.074;15.336;2023-12-04T06:20:08;5.65;;;4.82;;
3841;SDS011;1936;47.074;15.336;2023-12-04T06:22:13;6.50;;;4.70;;
3841;SDS011;1936;47.074;15.336;2023-12-04T06:24:20;5.55;;;4.95;;
3841;SDS011;1936;47.074;15.336;2023-12-04T06:26:24;6.82;;;4.85;;
3841;SDS011;1936;47.074;15.336;2023-12-04T06:28:28;7.90;;;4.75;;
3841;SDS011;1936;47.074;15.336;2023-12-04T06:30:32;6.15;;;4.75;;
3841;SDS011;1936;47.074;15.336;2023-12-04T06:32:37;5.70;;;4.55;;
3841;SDS011;1936;47.074;15.336;2023-12-04T06:34:41;6.78;;;4.32;;
3841;SDS011;1936;47.074;15.336;2023-12-04T06:36:46;10.20;;;5.45;;
3841;SDS011;1936;47.074;15.336;2023-12-04T06:38:50;5.90;;;4.55;;
3841;SDS011;1936;47.074;15.336;2023-12-04T06:40:55;5.07;;;3.85;;
3841;SDS011;1936;47.074;15.336;2023-12-04T06:42:59;8.68;;;5.43;;
3841;SDS011;1936;47.074;15.336;2023-12-04T06:45:03;6.85;;;3.92;;
3841;SDS011;1936;47.074;15.336;2023-12-04T06:47:08;5.10;;;4.07;;
3841;SDS011;1936;47.074;15.336;2023-12-04T06:49:13;7.07;;;5.18;;
3841;SDS011;1936;47.074;15.336;2023-12-04T06:51:19;6.05;;;3.97;;
3841;SDS011;1936;47.074;15.336;2023-12-04T06:53:22;7.90;;;4.47;;
3841;SDS011;1936;47.074;15.336;2023-12-04T06:55:25;7.05;;;4.30;;
3841;SDS011;1936;47.074;15.336;2023-12-04T06:57:29;6.43;;;4.05;;
3841;SDS011;1936;47.074;15.336;2023-12-04T06:59:32;8.95;;;5.00;;
3841;SDS011;1936;47.074;15.336;2023-12-04T07:01:36;6.60;;;4.50;;
3841;SDS011;1936;47.074;15.336;2023-12-04T07:03:38;5.78;;;4.18;;
3841;SDS011;1936;47.074;15.336;2023-12-04T07:05:43;6.55;;;5.18;;
3841;SDS011;1936;47.074;15.336;2023-12-04T07:07:47;5.35;;;3.63;;
3841;SDS011;1936;47.074;15.336;2023-12-04T07:09:50;8.75;;;5.90;;
3841;SDS011;1936;47.074;15.336;2023-12-04T07:11:54;7.18;;;4.88;;
3841;SDS011;1936;47.074;15.336;2023-12-04T07:13:57;5.78;;;4.30;;
3841;SDS011;1936;47.074;15.336;2023-12-04T07:16:00;4.93;;;3.72;;
3841;SDS011;1936;47.074;15.336;2023-12-04T07:18:04;8.02;;;4.55;;
3841;SDS011;1936;47.074;15.336;2023-12-04T07:20:08;6.75;;;4.72;;
3841;SDS011;1936;47.074;15.336;2023-12-04T07:22:14;6.47;;;4.22;;
3841;SDS011;1936;47.074;15.336;2023-12-04T07:24:18;5.82;;;3.97;;
3841;SDS011;1936;47.074;15.336;2023-12-04T07:26:21;7.30;;;4.50;;
3841;SDS011;1936;47.074;15.336;2023-12-04T07:28:25;4.80;;;3.80;;
3841;SDS011;1936;47.074;15.336;2023-12-04T07:30:28;4.72;;;4.18;;
3841;SDS011;1936;47.074;15.336;2023-12-04T07:32:30;6.85;;;4.70;;
3841;SDS011;1936;47.074;15.336;2023-12-04T07:34:34;6.85;;;4.75;;
3841;SDS011;1936;47.074;15.336;2023-12-04T07:36:38;6.35;;;4.32;;
3841;SDS011;1936;47.074;15.336;2023-12-04T07:38:43;7.28;;;4.45;;
3841;SDS011;1936;47.074;15.336;2023-12-04T07:40:46;5.70;;;3.85;;
3841;SDS011;1936;47.074;15.336;2023-12-04T07:42:50;7.45;;;4.53;;
3841;SDS011;1936;47.074;15.336;2023-12-04T07:44:53;6.15;;;4.68;;
3841;SDS011;1936;47.074;15.336;2023-12-04T07:46:57;7.57;;;4.07;;
3841;SDS011;1936;47.074;15.336;2023-12-04T07:48:59;5.18;;;3.78;;
3841;SDS011;1936;47.074;15.336;2023-12-04T07:51:04;5.60;;;4.13;;
3841;SDS011;1936;47.074;15.336;2023-12-04T07:53:08;7.50;;;4.55;;
3841;SDS011;1936;47.074;15.336;2023-12-04T07:55:14;7.85;;;4.70;;
3841;SDS011;1936;47.074;15.336;2023-12-04T07:57:18;6.28;;;3.65;;
3841;SDS011;1936;47.074;15.336;2023-12-04T07:59:22;8.30;;;3.95;;
3841;SDS011;1936;47.074;15.336;2023-12-04T08:01:25;6.53;;;4.60;;
3841;SDS011;1936;47.074;15.336;2023-12-04T08:03:29;6.13;;;4.10;;
3841;SDS011;1936;47.074;15.336;2023-12-04T08:05:33;9.18;;;5.35;;
3841;SDS011;1936;47.074;15.336;2023-12-04T08:07:36;5.85;;;3.70;;
3841;SDS011;1936;47.074;15.336;2023-12-04T08:09:39;6.43;;;4.57;;
3841;SDS011;1936;47.074;15.336;2023-12-04T08:11:44;8.13;;;4.22;;
3841;SDS011;1936;47.074;15.336;2023-12-04T08:13:47;5.95;;;4.07;;
3841;SDS011;1936;47.074;15.336;2023-12-04T08:15:50;6.22;;;3.97;;
3841;SDS011;1936;47.074;15.336;2023-12-04T08:17:54;6.22;;;4.60;;
3841;SDS011;1936;47.074;15.336;2023-12-04T08:19:57;4.97;;;4.20;;
3841;SDS011;1936;47.074;15.336;2023-12-04T08:22:00;8.43;;;4.82;;
3841;SDS011;1936;47.074;15.336;2023-12-04T08:24:04;6.18;;;4.65;;
3841;SDS011;1936;47.074;15.336;2023-12-04T08:26:08;5.28;;;3.83;;
3841;SDS011;1936;47.074;15.336;2023-12-04T08:28:13;8.55;;;6.57;;
3841;SDS011;1936;47.074;15.336;2023-12-04T08:30:16;12.23;;;5.78;;
3841;SDS011;1936;47.074;15.336;2023-12-04T08:32:19;8.38;;;5.50;;
3841;SDS011;1936;47.074;15.336;2023-12-04T08:34:23;5.57;;;4.75;;
3841;SDS011;1936;47.074;15.336;2023-12-04T08:36:26;4.88;;;4.30;;
3841;SDS011;1936;47.074;15.336;2023-12-04T08:38:44;5.20;;;4.38;;
3841;SDS011;1936;47.074;15.336;2023-12-04T08:40:48;7.50;;;4.60;;
3841;SDS011;1936;47.074;15.336;2023-12-04T08:42:51;6.10;;;4.40;;
3841;SDS011;1936;47.074;15.336;2023-12-04T08:44:56;5.27;;;4.43;;
3841;SDS011;1936;47.074;15.336;2023-12-04T08:47:00;5.77;;;4.10;;
3841;SDS011;1936;47.074;15.336;2023-12-04T08:49:03;6.93;;;4.77;;
3841;SDS011;1936;47.074;15.336;2023-12-04T08:51:07;6.17;;;4.50;;
3841;SDS011;1936;47.074;15.336;2023-12-04T08:53:10;5.57;;;4.20;;
3841;SDS011;1936;47.074;15.336;2023-12-04T08:55:14;5.10;;;4.37;;
3841;SDS011;1936;47.074;15.336;2023-12-04T08:57:17;3.60;;;3.20;;
3841;SDS011;1936;47.074;15.336;2023-12-04T08:59:21;5.90;;;5.03;;
3841;SDS011;1936;47.074;15.336;2023-12-04T09:01:26;5.07;;;4.00;;
3841;SDS011;1936;47.074;15.336;2023-12-04T09:03:30;9.33;;;4.20;;
3841;SDS011;1936;47.074;15.336;2023-12-04T09:05:34;8.00;;;4.30;;
3841;SDS011;1936;47.074;15.336;2023-12-04T09:07:39;7.17;;;4.50;;
3841;SDS011;1936;47.074;15.336;2023-12-04T09:10:02;4.30;;;3.90;;
3841;SDS011;1936;47.074;15.336;2023-12-04T09:12:14;4.53;;;3.87;;
3841;SDS011;1936;47.074;15.336;2023-12-04T09:14:19;5.53;;;4.23;;
3841;SDS011;1936;47.074;15.336;2023-12-04T09:16:22;5.30;;;4.80;;
3841;SDS011;1936;47.074;15.336;2023-12-04T09:18:28;4.30;;;3.80;;
3841;SDS011;1936;47.074;15.336;2023-12-04T09:20:32;5.40;;;4.40;;
3841;SDS011;1936;47.074;15.336;2023-12-04T09:22:36;5.30;;;4.80;;
3841;SDS011;1936;47.074;15.336;2023-12-04T09:24:53;5.30;;;4.00;;
3841;SDS011;1936;47.074;15.336;2023-12-04T09:26:56;6.37;;;5.13;;
3841;SDS011;1936;47.074;15.336;2023-12-04T09:28:59;7.23;;;4.97;;
3841;SDS011;1936;47.074;15.336;2023-12-04T09:31:03;7.07;;;5.93;;
3841;SDS011;1936;47.074;15.336;2023-12-04T09:33:07;6.57;;;5.87;;
3841;SDS011;1936;47.074;15.336;2023-12-04T09:35:12;5.23;;;4.50;;
3841;SDS011;1936;47.074;15.336;2023-12-04T09:37:16;4.30;;;3.90;;
3841;SDS011;1936;47.074;15.336;2023-12-04T09:39:19;4.77;;;3.97;;
3841;SDS011;1936;47.074;15.336;2023-12-04T09:41:22;5.23;;;3.60;;
3841;SDS011;1936;47.074;15.336;2023-12-04T09:43:26;7.53;;;4.10;;
3841;SDS011;1936;47.074;15.336;2023-12-04T09:45:32;4.57;;;3.40;;
3841;SDS011;1936;47.074;15.336;2023-12-04T09:47:36;3.60;;;3.30;;
3841;SDS011;1936;47.074;15.336;2023-12-04T09:49:40;9.00;;;4.13;;
3841;SDS011;1936;47.074;15.336;2023-12-04T09:51:45;4.20;;;3.80;;
3841;SDS011;1936;47.074;15.336;2023-12-04T09:53:48;5.60;;;4.67;;
3841;SDS011;1936;47.074;15.336;2023-12-04T09:55:52;6.67;;;3.93;;
3841;SDS011;1936;47.074;15.336;2023-12-04T09:57:57;4.17;;;3.83;;
3841;SDS011;1936;47.074;15.336;2023-12-04T10:00:02;5.40;;;4.90;;
3841;SDS011;1936;47.074;15.336;2023-12-04T10:02:07;4.80;;;3.70;;
3841;SDS011;1936;47.074;15.336;2023-12-04T10:04:11;9.73;;;5.43;;
3841;SDS011;1936;47.074;15.336;2023-12-04T10:06:15;5.47;;;4.93;;
3841;SDS011;1936;47.074;15.336;2023-12-04T10:08:21;5.47;;;4.90;;
3841;SDS011;1936;47.074;15.336;2023-12-04T10:10:24;6.20;;;4.47;;
3841;SDS011;1936;47.074;15.336;2023-12-04T10:12:28;4.40;;;4.00;;
3841;SDS011;1936;47.074;15.336;2023-12-04T10:14:32;4.37;;;3.97;;
3841;SDS011;1936;47.074;15.336;2023-12-04T10:16:36;4.53;;;4.23;;
3841;SDS011;1936;47.074;15.336;2023-12-04T10:18:39;5.70;;;5.10;;
3841;SDS011;1936;47.074;15.336;2023-12-04T10:20:47;6.10;;;4.93;;
3841;SDS011;1936;47.074;15.336;2023-12-04T10:22:54;5.80;;;4.67;;
3841;SDS011;1936;47.074;15.336;2023-12-04T10:24:59;6.47;;;4.17;;
3841;SDS011;1936;47.074;15.336;2023-12-04T10:27:17;4.17;;;3.80;;
3841;SDS011;1936;47.074;15.336;2023-12-04T10:29:22;5.47;;;4.30;;
3841;SDS011;1936;47.074;15.336;2023-12-04T10:31:24;4.67;;;4.17;;
3841;SDS011;1936;47.074;15.336;2023-12-04T10:33:29;4.43;;;3.60;;
3841;SDS011;1936;47.074;15.336;2023-12-04T10:35:33;4.57;;;4.17;;
3841;SDS011;1936;47.074;15.336;2023-12-04T10:37:38;4.70;;;4.30;;
3841;SDS011;1936;47.074;15.336;2023-12-04T10:39:48;7.17;;;4.23;;
3841;SDS011;1936;47.074;15.336;2023-12-04T10:42:00;4.67;;;4.20;;
3841;SDS011;1936;47.074;15.336;2023-12-04T10:44:04;5.13;;;4.07;;
3841;SDS011;1936;47.074;15.336;2023-12-04T10:46:11;6.20;;;4.30;;
3841;SDS011;1936;47.074;15.336;2023-12-04T10:48:16;4.53;;;4.10;;
3841;SDS011;1936;47.074;15.336;2023-12-04T10:50:20;5.00;;;4.33;;
3841;SDS011;1936;47.074;15.336;2023-12-04T10:52:24;5.10;;;4.67;;
3841;SDS011;1936;47.074;15.336;2023-12-04T10:54:29;4.33;;;4.03;;
3841;SDS011;1936;47.074;15.336;2023-12-04T10:56:35;4.93;;;4.53;;
3841;SDS011;1936;47.074;15.336;2023-12-04T10:58:42;4.53;;;4.13;;
3841;SDS011;1936;47.074;15.336;2023-12-04T11:00:46;5.50;;;4.60;;
3841;SDS011;1936;47.074;15.336;2023-12-04T11:02:50;6.93;;;5.63;;
3841;SDS011;1936;47.074;15.336;2023-12-04T11:04:58;9.23;;;5.33;;
3841;SDS011;1936;47.074;15.336;2023-12-04T11:07:05;11.37;;;5.37;;
3841;SDS011;1936;47.074;15.336;2023-12-04T11:09:09;5.33;;;4.33;;
3841;SDS011;1936;47.074;15.336;2023-12-04T11:11:15;6.30;;;5.03;;
3841;SDS011;1936;47.074;15.336;2023-12-04T11:13:21;10.80;;;5.73;;
3841;SDS011;1936;47.074;15.336;2023-12-04T11:15:31;9.60;;;4.90;;
3841;SDS011;1936;47.074;15.336;2023-12-04T11:17:37;7.72;;;5.15;;
3841;SDS011;1936;47.074;15.336;2023-12-04T11:19:43;5.82;;;4.88;;
3841;SDS011;1936;47.074;15.336;2023-12-04T11:21:55;6.85;;;5.15;;
3841;SDS011;1936;47.074;15.336;2023-12-04T11:24:01;8.43;;;5.55;;
3841;SDS011;1936;47.074;15.336;2023-12-04T11:26:06;9.07;;;6.13;;
3841;SDS011;1936;47.074;15.336;2023-12-04T11:28:11;5.47;;;4.70;;
3841;SDS011;1936;47.074;15.336;2023-12-04T11:30:15;5.80;;;4.80;;
3841;SDS011;1936;47.074;15.336;2023-12-04T11:32:19;6.85;;;5.55;;
3841;SDS011;1936;47.074;15.336;2023-12-04T11:34:23;6.38;;;5.43;;
3841;SDS011;1936;47.074;15.336;2023-12-04T11:36:27;7.55;;;5.03;;
3841;SDS011;1936;47.074;15.336;2023-12-04T11:38:31;7.00;;;5.55;;
3841;SDS011;1936;47.074;15.336;2023-12-04T11:40:35;6.75;;;5.30;;
3841;SDS011;1936;47.074;15.336;2023-12-04T11:42:39;6.85;;;5.57;;
3841;SDS011;1936;47.074;15.336;2023-12-04T11:44:42;8.90;;;5.70;;
3841;SDS011;1936;47.074;15.336;2023-12-04T11:46:55;9.57;;;6.50;;
3841;SDS011;1936;47.074;15.336;2023-12-04T11:51:46;14.38;;;7.40;;
3841;SDS011;1936;47.074;15.336;2023-12-04T11:53:52;8.32;;;6.00;;
3841;SDS011;1936;47.074;15.336;2023-12-04T11:55:57;9.48;;;6.63;;
3841;SDS011;1936;47.074;15.336;2023-12-04T11:58:00;7.10;;;6.40;;
3841;SDS011;1936;47.074;15.336;2023-12-04T12:00:18;8.80;;;6.85;;
3841;SDS011;1936;47.074;15.336;2023-12-04T12:02:24;7.18;;;5.95;;
3841;SDS011;1936;47.074;15.336;2023-12-04T12:04:50;7.47;;;6.28;;
3841;SDS011;1936;47.074;15.336;2023-12-04T12:06:56;9.13;;;7.15;;
3841;SDS011;1936;47.074;15.336;2023-12-04T12:09:04;7.88;;;6.85;;
3841;SDS011;1936;47.074;15.336;2023-12-04T12:11:08;11.25;;;6.60;;
3841;SDS011;1936;47.074;15.336;2023-12-04T12:13:12;7.25;;;6.55;;
3841;SDS011;1936;47.074;15.336;2023-12-04T12:15:16;8.95;;;6.90;;
3841;SDS011;1936;47.074;15.336;2023-12-04T12:17:18;7.88;;;6.82;;
3841;SDS011;1936;47.074;15.336;2023-12-04T12:19:22;8.85;;;7.15;;
3841;SDS011;1936;47.074;15.336;2023-12-04T12:21:27;7.32;;;6.35;;
3841;SDS011;1936;47.074;15.336;2023-12-04T12:23:32;8.57;;;6.50;;
3841;SDS011;1936;47.074;15.336;2023-12-04T12:25:36;7.82;;;6.47;;
3841;SDS011;1936;47.074;15.336;2023-12-04T12:27:40;10.38;;;6.88;;
3841;SDS011;1936;47.074;15.336;2023-12-04T12:29:44;9.02;;;6.78;;
3841;SDS011;1936;47.074;15.336;2023-12-04T12:31:47;8.80;;;7.30;;
3841;SDS011;1936;47.074;15.336;2023-12-04T12:33:52;9.93;;;7.30;;
3841;SDS011;1936;47.074;15.336;2023-12-04T12:36:00;11.52;;;8.10;;
3841;SDS011;1936;47.074;15.336;2023-12-04T12:38:07;9.07;;;8.10;;
3841;SDS011;1936;47.074;15.336;2023-12-04T12:40:10;8.35;;;7.40;;
3841;SDS011;1936;47.074;15.336;2023-12-04T12:42:20;14.00;;;7.57;;
3841;SDS011;1936;47.074;15.336;2023-12-04T12:44:24;9.70;;;8.10;;